Salt Lake City, Utah
Traffic Map
Current Weather Conditions
Salt Lake City, Utah
Clear
Clear
32°
Feels Like: 26°
Wind Chill: 26° Ceiling: Unl
Heat Index: 32° Visibility: 10mi
Dew Point: 28° Wind: 6mph
Humidity: 85% Direction: 140° (SE)
Pressure: 30.39in Gusts: 0mph
Raw Report DataKSLC 261353Z 14005KT 10SM CLR 00/M02 A3039 RMK AO2 SLP302 T00001022
Traffic Incident Summary
Active as of:
Severity:
Category:
InformationThere was an issue retrieving the traffic information for this location. Please try a different location or try again shortly.
Advertisements
Track Severe Weather on mobile